createdAt,value
2018-12-10T00:01:06.751Z,97.40
2018-12-10T00:03:52.517Z,97.50
2018-12-10T00:06:33.431Z,97.50
2018-12-10T00:09:16.549Z,97.60
2018-12-10T00:11:54.338Z,97.40
2018-12-10T00:17:06.168Z,96.60
2018-12-10T00:19:34.950Z,96.10
2018-12-10T00:22:03.897Z,95.80
2018-12-10T00:24:32.654Z,95.60
2018-12-10T00:27:01.438Z,95.40
2018-12-10T00:29:30.194Z,95.20
2018-12-10T00:31:59.043Z,95.20
2018-12-10T00:34:27.798Z,95.20
2018-12-10T00:36:56.686Z,95.30
2018-12-10T00:39:25.452Z,95.20
2018-12-10T00:41:54.313Z,95.10
2018-12-10T00:44:23.179Z,95.00
2018-12-10T00:46:51.935Z,94.80
2018-12-10T00:49:20.966Z,94.60
2018-12-10T00:51:49.728Z,94.40
2018-12-10T00:54:18.498Z,94.40
2018-12-10T00:56:47.270Z,94.70
2018-12-10T00:59:16.054Z,95.10
2018-12-10T01:01:45.068Z,95.70
2018-12-10T01:04:13.823Z,95.90
2018-12-10T01:06:42.682Z,96.20
2018-12-10T01:09:11.521Z,96.50
2018-12-10T01:11:40.318Z,96.70
2018-12-10T01:14:09.184Z,96.50
2018-12-10T01:16:38.310Z,96.30
2018-12-10T01:19:08.089Z,95.70
2018-12-10T01:21:37.107Z,95.40
2018-12-10T01:24:07.406Z,94.80
2018-12-10T01:26:36.183Z,94.20
2018-12-10T01:29:04.953Z,93.80
2018-12-10T01:31:33.710Z,93.70
2018-12-10T01:34:02.470Z,93.30
2018-12-10T01:36:31.327Z,93.00
2018-12-10T01:39:00.257Z,92.90
2018-12-10T01:41:29.029Z,92.60
2018-12-10T01:43:58.023Z,92.60
2018-12-10T01:46:26.778Z,92.60
2018-12-10T01:48:55.734Z,91.60
2018-12-10T01:51:24.582Z,91.20
2018-12-10T01:53:53.369Z,90.80
2018-12-10T01:56:22.218Z,90.50
2018-12-10T01:58:50.990Z,90.40
2018-12-10T02:01:19.737Z,90.40
2018-12-10T02:03:48.593Z,90.80
2018-12-10T02:06:17.362Z,91.20
2018-12-10T02:08:46.118Z,91.70
2018-12-10T02:11:15.143Z,92.00
2018-12-10T02:13:43.995Z,92.50
2018-12-10T02:16:12.761Z,92.70
2018-12-10T02:18:41.502Z,94.20
2018-12-10T02:21:10.258Z,94.40
2018-12-10T02:23:39.028Z,95.00
2018-12-10T02:26:07.854Z,95.60
2018-12-10T02:28:42.229Z,95.90
2018-12-10T02:31:10.992Z,96.40
2018-12-10T02:33:39.771Z,97.00
2018-12-10T02:36:08.629Z,96.80
2018-12-10T02:38:37.510Z,96.80
2018-12-10T02:41:06.369Z,96.80
2018-12-10T02:43:35.186Z,97.00
2018-12-10T02:46:04.026Z,96.90
2018-12-10T02:48:32.801Z,96.60
2018-12-10T02:51:01.576Z,96.00
2018-12-10T02:53:30.370Z,95.60
2018-12-10T02:55:59.181Z,95.00
2018-12-10T02:58:27.942Z,94.80
2018-12-10T03:00:56.799Z,94.40
2018-12-10T03:03:25.655Z,94.60
2018-12-10T03:05:54.579Z,94.90
2018-12-10T03:08:23.344Z,94.50
2018-12-10T03:10:52.151Z,94.30
2018-12-10T03:13:21.039Z,94.00
2018-12-10T03:15:49.846Z,93.60
2018-12-10T03:18:18.626Z,93.40
2018-12-10T03:20:47.388Z,93.10
2018-12-10T03:23:16.227Z,92.90
2018-12-10T03:25:45.034Z,92.70
2018-12-10T03:28:13.858Z,92.40
2018-12-10T03:30:42.974Z,92.30
2018-12-10T03:33:12.743Z,92.40
2018-12-10T03:35:41.515Z,92.50
2018-12-10T03:38:10.287Z,92.50
2018-12-10T03:40:45.578Z,92.80
2018-12-10T03:43:14.337Z,93.00
2018-12-10T03:45:43.106Z,93.20
2018-12-10T03:48:11.881Z,93.70
2018-12-10T03:50:47.345Z,94.00
2018-12-10T03:53:16.112Z,93.70
2018-12-10T03:55:44.899Z,93.50
2018-12-10T03:58:13.671Z,93.60
2018-12-10T04:00:42.687Z,93.60
2018-12-10T04:03:11.448Z,93.20
2018-12-10T04:05:40.221Z,92.90
2018-12-10T04:08:09.069Z,93.30
2018-12-10T04:10:37.857Z,93.00
2018-12-10T04:13:06.984Z,92.50
2018-12-10T04:15:35.784Z,92.70
2018-12-10T04:18:04.540Z,92.80
2018-12-10T04:20:33.305Z,92.80
2018-12-10T04:23:02.087Z,92.60
2018-12-10T04:25:32.883Z,92.40
2018-12-10T04:28:01.671Z,92.20
2018-12-10T04:30:30.490Z,91.70
2018-12-10T04:32:59.271Z,91.40
2018-12-10T04:35:29.086Z,91.20
2018-12-10T04:37:57.934Z,90.70
2018-12-10T04:40:26.706Z,90.60
2018-12-10T04:42:55.474Z,91.00
2018-12-10T04:45:24.326Z,90.90
2018-12-10T04:47:53.076Z,91.00
2018-12-10T04:50:21.848Z,91.10
2018-12-10T04:52:50.598Z,91.30
2018-12-10T04:55:19.362Z,91.50
2018-12-10T04:57:48.126Z,92.10
2018-12-10T05:00:16.894Z,92.10
2018-12-10T05:02:45.711Z,92.30
2018-12-10T05:05:14.546Z,92.80
2018-12-10T05:07:43.318Z,93.80
2018-12-10T05:10:12.150Z,94.30
2018-12-10T05:12:40.940Z,94.70
2018-12-10T05:15:10.006Z,94.90
2018-12-10T05:17:38.782Z,95.00
2018-12-10T05:20:07.765Z,95.00
2018-12-10T05:22:36.536Z,95.00
2018-12-10T05:25:05.574Z,95.00
2018-12-10T05:27:34.358Z,95.60
2018-12-10T05:30:03.354Z,95.90
2018-12-10T05:32:32.134Z,95.10
2018-12-10T05:35:00.877Z,93.70
2018-12-10T05:37:29.639Z,92.60
2018-12-10T05:39:58.408Z,91.50
2018-12-10T05:42:27.182Z,91.60
2018-12-10T05:44:55.927Z,92.10
2018-12-10T05:47:24.688Z,92.60
2018-12-10T05:49:53.606Z,92.70
2018-12-10T05:52:22.526Z,92.90
2018-12-10T05:54:51.451Z,93.10
2018-12-10T05:57:20.367Z,93.50
2018-12-10T05:59:49.851Z,93.80
2018-12-10T06:02:19.585Z,93.90
2018-12-10T06:04:48.502Z,94.10
2018-12-10T06:07:17.425Z,94.40
2018-12-10T06:09:46.346Z,94.70
2018-12-10T06:12:15.266Z,94.80
2018-12-10T06:14:44.202Z,95.60
2018-12-10T06:17:13.236Z,96.40
2018-12-10T06:19:42.149Z,96.00
2018-12-10T06:22:11.086Z,95.80
2018-12-10T06:24:39.986Z,95.00
2018-12-10T06:27:08.921Z,95.00
2018-12-10T06:29:37.830Z,94.80
2018-12-10T06:32:07.518Z,95.40
2018-12-10T06:34:36.423Z,97.10
2018-12-10T06:37:05.333Z,98.30
2018-12-10T06:39:34.234Z,99.10
2018-12-10T06:42:04.141Z,99.30
2018-12-10T06:44:33.054Z,99.30
2018-12-10T06:47:01.973Z,99.60
2018-12-10T06:49:30.898Z,99.20
2018-12-10T06:52:06.103Z,99.20
2018-12-10T06:54:35.021Z,99.00
2018-12-10T06:57:03.970Z,98.90
2018-12-10T06:59:32.883Z,98.90
2018-12-10T07:02:01.808Z,98.80
2018-12-10T07:04:30.724Z,98.70
2018-12-10T07:06:59.627Z,98.20
2018-12-10T07:09:28.632Z,98.10
2018-12-10T07:14:39.701Z,98.20
2018-12-10T07:17:16.847Z,98.20
2018-12-10T07:20:04.656Z,98.60
2018-12-10T07:26:47.899Z,99.90
2018-12-10T07:29:31.903Z,99.90
2018-12-10T07:37:47.183Z,99.90
2018-12-10T07:40:39.713Z,99.90
2018-12-10T07:43:27.167Z,99.90
2018-12-10T07:46:21.780Z,99.90
2018-12-10T07:52:05.787Z,99.90
2018-12-10T07:54:44.950Z,99.70
2018-12-10T08:00:17.793Z,99.50
2018-12-10T08:02:48.439Z,99.40
2018-12-10T08:08:14.433Z,99.50
2018-12-10T08:10:52.846Z,99.40
2018-12-10T08:13:23.091Z,99.50
2018-12-10T08:15:52.136Z,99.70
2018-12-10T08:18:21.130Z,99.50
2018-12-10T08:20:50.076Z,99.50
2018-12-10T08:23:19.035Z,99.60
2018-12-10T08:25:48.082Z,99.40
2018-12-10T08:28:17.002Z,99.30
2018-12-10T08:30:45.935Z,99.20
2018-12-10T08:33:14.873Z,99.10
2018-12-10T08:35:43.909Z,99.00
2018-12-10T08:38:13.837Z,98.90
2018-12-10T08:40:42.757Z,98.70
2018-12-10T08:43:11.527Z,98.50
2018-12-10T08:45:40.357Z,98.80
2018-12-10T08:48:09.812Z,98.50
2018-12-10T08:50:38.599Z,98.40
2018-12-10T08:53:07.455Z,98.00
2018-12-10T08:55:36.546Z,97.70
2018-12-10T08:58:05.419Z,97.50
2018-12-10T09:00:55.898Z,97.00
2018-12-10T09:17:35.811Z,96.70
2018-12-10T09:20:20.808Z,97.00
2018-12-10T09:26:04.026Z,97.50
2018-12-10T09:28:38.846Z,97.30
2018-12-10T09:31:22.026Z,96.70
2018-12-10T09:34:03.135Z,96.60
2018-12-10T09:36:38.072Z,96.40
2018-12-10T09:42:11.505Z,95.80
2018-12-10T09:44:45.953Z,95.10
2018-12-10T09:55:29.662Z,94.30
2018-12-10T09:57:58.466Z,94.40
2018-12-10T10:00:29.496Z,95.50
2018-12-10T10:02:59.010Z,96.10
2018-12-10T10:05:35.350Z,95.70
2018-12-10T10:08:31.123Z,95.20
2018-12-10T10:11:17.906Z,95.30
2018-12-10T10:17:12.312Z,95.10
2018-12-10T10:20:07.487Z,94.70
2018-12-10T10:28:37.743Z,94.20
2018-12-10T10:31:06.608Z,94.00
2018-12-10T10:33:35.398Z,93.60
2018-12-10T10:36:04.275Z,93.30
2018-12-10T10:38:33.067Z,93.30
2018-12-10T10:41:01.874Z,92.90
2018-12-10T10:43:30.743Z,93.00
2018-12-10T10:45:59.639Z,92.20
2018-12-10T10:48:28.430Z,91.40
2018-12-10T10:50:57.286Z,89.90
2018-12-10T10:53:26.074Z,90.10
2018-12-10T10:55:54.995Z,89.50
2018-12-10T10:58:23.810Z,87.80
2018-12-10T11:00:58.038Z,87.90
2018-12-10T11:03:32.138Z,86.60
2018-12-10T11:06:00.939Z,85.80
2018-12-10T11:08:29.907Z,86.00
2018-12-10T11:10:58.909Z,85.70
2018-12-10T11:13:28.678Z,89.00
2018-12-10T11:15:57.460Z,90.10
2018-12-10T11:18:26.521Z,90.90
2018-12-10T11:20:55.330Z,91.80
2018-12-10T11:23:24.287Z,91.50
2018-12-10T11:25:53.058Z,92.30
2018-12-10T11:28:21.851Z,92.50
2018-12-10T11:30:50.768Z,92.70
2018-12-10T11:33:19.546Z,91.80
2018-12-10T11:35:48.431Z,91.60
2018-12-10T11:38:17.305Z,91.80
2018-12-10T11:40:46.521Z,91.40
2018-12-10T11:43:15.386Z,90.50
2018-12-10T11:45:44.663Z,89.10
2018-12-10T11:48:16.008Z,89.60
2018-12-10T11:50:53.142Z,89.60
2018-12-10T12:01:42.525Z,90.20
2018-12-10T12:04:28.324Z,90.00
2018-12-10T12:09:55.540Z,86.80
2018-12-10T12:12:41.319Z,85.60
2018-12-10T12:15:16.233Z,83.20
2018-12-10T12:18:04.386Z,83.80
2018-12-10T12:20:53.497Z,80.60
2018-12-10T12:26:45.945Z,83.50
2018-12-10T12:29:33.566Z,85.30
2018-12-10T12:32:32.175Z,83.80
2018-12-10T12:35:07.999Z,81.50
2018-12-10T12:37:38.914Z,81.90
2018-12-10T12:43:12.172Z,82.70
2018-12-10T12:45:39.279Z,83.40
2018-12-10T12:48:18.941Z,84.50
2018-12-10T12:56:30.610Z,81.30
2018-12-10T12:59:07.029Z,82.30
2018-12-10T13:01:35.959Z,81.70
2018-12-10T13:04:04.835Z,83.00
2018-12-10T13:06:34.287Z,82.50
2018-12-10T13:09:04.957Z,83.00
2018-12-10T13:11:33.976Z,82.00
2018-12-10T13:14:03.545Z,82.90
2018-12-10T13:16:32.797Z,82.40
2018-12-10T13:19:01.791Z,83.20
2018-12-10T13:21:30.868Z,83.10
2018-12-10T13:24:00.548Z,84.20
2018-12-10T13:26:30.194Z,83.60
2018-12-10T13:29:00.125Z,82.50
2018-12-10T13:31:31.197Z,81.90
2018-12-10T13:34:00.438Z,81.70
2018-12-10T13:36:30.152Z,83.40
2018-12-10T13:38:59.475Z,84.20
2018-12-10T13:41:30.041Z,84.60
2018-12-10T13:43:59.914Z,83.70
2018-12-10T13:46:29.615Z,83.80
2018-12-10T13:48:59.244Z,84.40
2018-12-10T13:51:31.728Z,90.30
2018-12-10T13:54:04.657Z,93.20
2018-12-10T13:56:33.833Z,95.20
2018-12-10T13:59:03.428Z,96.80
2018-12-10T14:01:33.840Z,97.60
2018-12-10T14:04:12.110Z,98.10
2018-12-10T14:06:45.392Z,98.40
2018-12-10T14:09:14.971Z,98.60
2018-12-10T14:11:44.616Z,98.40
2018-12-10T14:14:13.911Z,98.20
2018-12-10T14:16:44.447Z,97.60
2018-12-10T14:19:15.811Z,97.30
2018-12-10T14:21:44.554Z,96.40
2018-12-10T14:24:14.018Z,95.80
2018-12-10T14:26:42.797Z,94.40
2018-12-10T14:29:11.814Z,94.30
2018-12-10T14:31:40.699Z,94.90
2018-12-10T14:34:15.621Z,95.30
2018-12-10T14:36:44.514Z,95.70
2018-12-10T14:39:20.128Z,95.90
2018-12-10T14:41:49.032Z,96.30
2018-12-10T14:44:19.122Z,96.20
2018-12-10T14:46:50.459Z,96.10
2018-12-10T14:49:19.847Z,95.40
2018-12-10T14:51:51.802Z,96.30
2018-12-10T14:57:10.440Z,98.20
2018-12-10T15:02:17.141Z,98.00
2018-12-10T15:04:48.998Z,97.90
2018-12-10T15:07:19.392Z,97.30
2018-12-10T15:09:49.698Z,97.20
2018-12-10T15:12:19.418Z,97.10
2018-12-10T15:14:48.211Z,96.80
2018-12-10T15:17:17.363Z,97.00
2018-12-10T15:19:49.036Z,97.10
2018-12-10T15:27:32.317Z,96.80
2018-12-10T15:30:02.228Z,97.10
2018-12-10T15:32:33.170Z,97.40
2018-12-10T15:35:04.178Z,97.50
2018-12-10T15:37:45.818Z,97.40
2018-12-10T15:40:25.328Z,97.40
2018-12-10T15:42:55.978Z,97.30
2018-12-10T15:45:24.769Z,97.10
2018-12-10T15:47:53.624Z,96.90
2018-12-10T15:50:22.911Z,96.30
2018-12-10T15:52:55.182Z,95.60
2018-12-10T15:55:30.487Z,95.00
2018-12-10T15:58:01.199Z,94.70
2018-12-10T16:00:34.589Z,94.40
2018-12-10T16:03:07.576Z,94.10
2018-12-10T16:05:37.106Z,94.10
2018-12-10T16:08:06.786Z,94.10
2018-12-10T16:10:38.005Z,94.50
2018-12-10T16:13:06.854Z,94.20
2018-12-10T16:15:35.788Z,94.10
2018-12-10T16:18:08.526Z,94.00
2018-12-10T16:23:26.163Z,93.70
2018-12-10T16:25:57.009Z,93.60
2018-12-10T16:28:25.994Z,93.10
2018-12-10T16:30:55.054Z,93.00
2018-12-10T16:33:24.725Z,92.70
2018-12-10T16:35:54.482Z,92.70
2018-12-10T16:38:24.431Z,93.10
2018-12-10T16:40:53.760Z,92.50
2018-12-10T16:43:31.687Z,92.50
2018-12-10T16:46:06.781Z,92.30
2018-12-10T16:48:37.450Z,92.30
2018-12-10T16:51:08.950Z,92.10
2018-12-10T16:53:42.325Z,92.20
2018-12-10T16:56:12.044Z,92.20
2018-12-10T16:58:52.049Z,92.30
2018-12-10T17:01:25.320Z,92.40
2018-12-10T17:03:56.441Z,92.40
2018-12-10T17:06:25.408Z,92.80
2018-12-10T17:08:54.279Z,93.80
2018-12-10T17:11:23.245Z,94.40
2018-12-10T17:13:52.912Z,94.40
2018-12-10T17:16:23.081Z,94.50
2018-12-10T17:18:57.940Z,94.40
2018-12-10T17:21:30.461Z,94.30
2018-12-10T17:24:03.661Z,94.30
2018-12-10T17:26:34.348Z,94.00
2018-12-10T17:29:03.332Z,93.90
2018-12-10T17:31:32.923Z,93.50
2018-12-10T17:34:03.356Z,93.70
2018-12-10T17:36:36.667Z,93.80
2018-12-10T17:39:15.772Z,93.90
2018-12-10T17:41:48.349Z,93.40
2018-12-10T17:44:18.770Z,93.10
2018-12-10T17:46:49.696Z,92.80
2018-12-10T17:49:19.309Z,92.90
2018-12-10T17:51:48.434Z,92.90
2018-12-10T17:54:18.697Z,92.80
2018-12-10T17:56:52.524Z,93.30
2018-12-10T17:59:27.229Z,95.20
2018-12-10T18:02:06.293Z,96.30
2018-12-10T18:04:37.102Z,96.80
2018-12-10T18:07:08.548Z,96.90
2018-12-10T18:09:38.121Z,97.60
2018-12-10T18:12:08.046Z,97.90
2018-12-10T18:14:36.897Z,98.60
2018-12-10T18:17:15.666Z,98.40
2018-12-10T18:19:44.835Z,98.60
2018-12-10T18:22:15.128Z,98.20
2018-12-10T18:24:43.995Z,97.80
2018-12-10T18:27:15.512Z,98.60
2018-12-10T18:29:46.138Z,99.10
2018-12-10T18:32:14.995Z,99.60
2018-12-10T18:34:44.754Z,99.90
2018-12-10T18:37:21.357Z,99.90
2018-12-10T18:39:54.896Z,99.70
2018-12-10T18:42:23.792Z,99.90
2018-12-10T18:44:52.685Z,99.90
2018-12-10T18:47:24.067Z,99.90
2018-12-10T18:49:53.541Z,99.90
2018-12-10T18:52:22.627Z,99.80
2018-12-10T18:54:51.473Z,99.60
2018-12-10T18:57:28.706Z,99.50
2018-12-10T19:00:00.022Z,99.50
2018-12-10T19:02:28.872Z,99.40
2018-12-10T19:05:06.745Z,99.60
2018-12-10T19:07:35.636Z,99.80
2018-12-10T19:10:06.154Z,99.90
2018-12-10T19:12:35.308Z,99.90
2018-12-10T19:15:09.905Z,99.90
2018-12-10T19:17:38.881Z,99.80
2018-12-10T19:20:13.542Z,99.60
2018-12-10T19:22:40.103Z,99.40
2018-12-10T19:25:09.628Z,99.20
2018-12-10T19:27:39.362Z,99.00
2018-12-10T19:30:08.313Z,98.90
2018-12-10T19:32:38.064Z,98.90
2018-12-10T19:35:07.580Z,99.10
2018-12-10T19:37:36.599Z,99.10
2018-12-10T19:40:10.014Z,99.10
2018-12-10T19:42:41.452Z,99.20
2018-12-10T19:45:14.020Z,99.30
2018-12-10T19:47:49.433Z,99.10
2018-12-10T19:50:22.121Z,99.10
2018-12-10T19:52:51.350Z,99.10
2018-12-10T19:55:21.085Z,99.60
2018-12-10T19:57:52.737Z,99.90
2018-12-10T20:00:23.180Z,99.90
2018-12-10T20:02:53.580Z,99.90
2018-12-10T20:05:28.741Z,99.90
2018-12-10T20:07:57.782Z,99.90
2018-12-10T20:10:31.137Z,99.90
2018-12-10T20:13:00.082Z,99.90
2018-12-10T20:15:30.208Z,99.90
2018-12-10T20:18:00.392Z,99.90
2018-12-10T20:20:33.525Z,99.90
2018-12-10T20:23:04.570Z,99.70
2018-12-10T20:25:34.735Z,99.20
2018-12-10T20:28:10.008Z,98.80
2018-12-10T20:30:42.117Z,98.80
2018-12-10T20:33:14.736Z,98.90
2018-12-10T20:35:46.401Z,98.90
2018-12-10T20:38:15.317Z,98.90
2018-12-10T20:40:50.629Z,98.80
2018-12-10T20:43:30.522Z,99.10
2018-12-10T20:46:10.255Z,99.30
2018-12-10T20:48:42.495Z,99.30
2018-12-10T20:51:11.794Z,99.40
2018-12-10T20:53:42.459Z,99.20
2018-12-10T20:56:13.680Z,99.30
2018-12-10T20:58:43.990Z,99.50
2018-12-10T21:01:14.651Z,99.50
2018-12-10T21:03:44.187Z,99.50
2018-12-10T21:06:18.914Z,99.60
2018-12-10T21:08:50.713Z,99.70
2018-12-10T21:11:23.452Z,99.80
2018-12-10T21:13:54.600Z,99.80
2018-12-10T21:16:25.899Z,99.70
2018-12-10T21:18:56.133Z,99.70
2018-12-10T21:21:27.146Z,99.80
2018-12-10T21:23:58.556Z,99.80
2018-12-10T21:26:28.846Z,99.90
2018-12-10T21:28:58.277Z,99.90
2018-12-10T21:31:27.406Z,99.90
2018-12-10T21:33:56.865Z,99.90
2018-12-10T21:36:26.095Z,99.90
2018-12-10T21:38:55.772Z,99.90
2018-12-10T21:41:24.826Z,99.90
2018-12-10T21:43:58.210Z,99.90
2018-12-10T21:46:30.462Z,99.90
2018-12-10T21:49:00.608Z,99.90
2018-12-10T21:51:32.755Z,99.90
2018-12-10T21:54:04.629Z,99.90
2018-12-10T21:56:39.591Z,99.90
2018-12-10T21:59:08.887Z,99.90
2018-12-10T22:01:37.792Z,99.80
2018-12-10T22:04:11.797Z,99.70
2018-12-10T22:06:41.701Z,99.50
2018-12-10T22:09:13.007Z,99.30
2018-12-10T22:11:45.917Z,99.60
2018-12-10T22:14:20.266Z,99.10
2018-12-10T22:16:52.627Z,99.10
2018-12-10T22:19:22.558Z,99.20
2018-12-10T22:21:52.293Z,99.40
2018-12-10T22:24:24.480Z,99.30
2018-12-10T22:26:56.094Z,99.40
2018-12-10T22:29:28.837Z,99.50
2018-12-10T22:31:59.841Z,99.70
2018-12-10T22:34:32.160Z,99.80
2018-12-10T22:37:01.698Z,99.90
2018-12-10T22:39:32.009Z,99.90
2018-12-10T22:42:01.678Z,99.90
2018-12-10T22:44:32.118Z,99.90
2018-12-10T22:47:01.239Z,99.90
2018-12-10T22:49:30.453Z,99.90
2018-12-10T22:52:00.942Z,99.90
2018-12-10T22:54:31.753Z,99.90
2018-12-10T22:57:01.010Z,99.90
2018-12-10T22:59:33.403Z,99.90
2018-12-10T23:02:03.802Z,99.90
2018-12-10T23:04:33.444Z,99.90
2018-12-10T23:07:02.307Z,99.80
2018-12-10T23:09:35.490Z,99.70
2018-12-10T23:12:07.411Z,99.50
2018-12-10T23:14:36.812Z,99.60
2018-12-10T23:17:06.662Z,99.60
2018-12-10T23:19:38.425Z,99.60
2018-12-10T23:22:13.015Z,99.50
2018-12-10T23:24:43.284Z,99.50
2018-12-10T23:27:12.745Z,99.70
2018-12-10T23:29:43.507Z,99.40
2018-12-10T23:32:13.996Z,99.10
2018-12-10T23:34:42.979Z,98.80
2018-12-10T23:37:14.605Z,98.70
2018-12-10T23:39:45.674Z,98.80
2018-12-10T23:42:15.872Z,98.80
2018-12-10T23:44:53.801Z,98.90
2018-12-10T23:47:25.014Z,99.00
2018-12-10T23:49:56.182Z,99.00
2018-12-10T23:52:30.068Z,99.00
2018-12-10T23:57:57.369Z,98.80
